KMWL/MWL METAR and TAF weather

Enter ICAO airport designator
Station Type Date Time Source
KMWL METAR 2022/05/24 12:53 UTC NOAA

KMWL 241253Z AUTO 15006KT 2 1/2SM BR OVC005 20/18 A2978 RMK AO2 RAB43E53 SLP075 P0000 T02000183


Station Type Date Time Source
KMWL Decoded METAR 2022/05/24 12:53 UTC NOAA

MINERAL WELLS AIRPORT, TX, United States (KMWL) 32-47N 098-04W 284M
May 24, 2022 - 08:53 AM EDT / 2022.05.24 1253 UTC
Wind: from the SSE (150 degrees) at 7 MPH (6 KT):0
Visibility: 2 1/2 mile(s):0
Sky conditions: overcast
Weather: mist
Precipitation last hour: A trace
Temperature: 68.0 F (20.0 C)
Dew Point: 64.9 F (18.3 C)
Relative Humidity: 89%
Pressure (altimeter): 29.78 in. Hg (1008 hPa)
ob: KMWL 241253Z AUTO 15006KT 2 1/2SM BR OVC005 20/18 A2978 RMK AO2 RAB43E53 SLP075 P0000 T02000183
cycle: 13

Station Type Date Time Source
KMWL TAF UTC NOAA

Error!

Example: see airport list